sensor_id;sensor_type;location;lat;lon;timestamp;P1;durP1;ratioP1;P2;durP2;ratioP2
67768;SDS011;54569;52.018;5.584;2023-04-16T00:02:10;7.75;;;2.40;;
67768;SDS011;54569;52.018;5.584;2023-04-16T00:04:36;3.88;;;2.08;;
67768;SDS011;54569;52.018;5.584;2023-04-16T00:07:02;4.38;;;2.20;;
67768;SDS011;54569;52.018;5.584;2023-04-16T00:09:28;4.88;;;2.78;;
67768;SDS011;54569;52.018;5.584;2023-04-16T00:11:53;6.45;;;2.65;;
67768;SDS011;54569;52.018;5.584;2023-04-16T00:14:20;5.75;;;2.28;;
67768;SDS011;54569;52.018;5.584;2023-04-16T00:16:46;6.57;;;2.60;;
67768;SDS011;54569;52.018;5.584;2023-04-16T00:19:11;7.28;;;2.38;;
67768;SDS011;54569;52.018;5.584;2023-04-16T00:21:37;6.00;;;2.70;;
67768;SDS011;54569;52.018;5.584;2023-04-16T00:24:03;6.32;;;2.72;;
67768;SDS011;54569;52.018;5.584;2023-04-16T00:26:29;7.72;;;2.70;;
67768;SDS011;54569;52.018;5.584;2023-04-16T00:28:55;7.55;;;2.38;;
67768;SDS011;54569;52.018;5.584;2023-04-16T00:31:31;6.78;;;2.55;;
67768;SDS011;54569;52.018;5.584;2023-04-16T00:33:57;8.07;;;3.20;;
67768;SDS011;54569;52.018;5.584;2023-04-16T00:36:23;7.50;;;3.03;;
67768;SDS011;54569;52.018;5.584;2023-04-16T00:41:21;8.65;;;4.40;;
67768;SDS011;54569;52.018;5.584;2023-04-16T00:43:47;8.80;;;3.40;;
67768;SDS011;54569;52.018;5.584;2023-04-16T00:46:14;11.45;;;4.32;;
67768;SDS011;54569;52.018;5.584;2023-04-16T00:48:41;10.98;;;4.03;;
67768;SDS011;54569;52.018;5.584;2023-04-16T00:51:09;7.72;;;4.18;;
67768;SDS011;54569;52.018;5.584;2023-04-16T00:53:35;13.02;;;4.78;;
67768;SDS011;54569;52.018;5.584;2023-04-16T00:56:02;14.15;;;4.15;;
67768;SDS011;54569;52.018;5.584;2023-04-16T00:58:29;8.30;;;3.78;;
67768;SDS011;54569;52.018;5.584;2023-04-16T01:00:54;11.40;;;4.70;;
67768;SDS011;54569;52.018;5.584;2023-04-16T01:03:21;9.60;;;4.00;;
67768;SDS011;54569;52.018;5.584;2023-04-16T01:05:47;11.32;;;4.80;;
67768;SDS011;54569;52.018;5.584;2023-04-16T01:08:18;9.60;;;4.32;;
67768;SDS011;54569;52.018;5.584;2023-04-16T01:10:45;11.93;;;4.90;;
67768;SDS011;54569;52.018;5.584;2023-04-16T01:13:11;16.92;;;6.57;;
67768;SDS011;54569;52.018;5.584;2023-04-16T01:15:37;14.88;;;5.68;;
67768;SDS011;54569;52.018;5.584;2023-04-16T01:18:11;13.73;;;6.25;;
67768;SDS011;54569;52.018;5.584;2023-04-16T01:20:39;17.13;;;6.07;;
67768;SDS011;54569;52.018;5.584;2023-04-16T01:23:05;15.27;;;6.05;;
67768;SDS011;54569;52.018;5.584;2023-04-16T01:25:30;12.55;;;5.63;;
67768;SDS011;54569;52.018;5.584;2023-04-16T01:27:56;10.75;;;5.07;;
67768;SDS011;54569;52.018;5.584;2023-04-16T01:30:23;13.63;;;5.30;;
67768;SDS011;54569;52.018;5.584;2023-04-16T01:33:00;11.73;;;5.00;;
67768;SDS011;54569;52.018;5.584;2023-04-16T01:35:27;17.40;;;5.97;;
67768;SDS011;54569;52.018;5.584;2023-04-16T01:37:53;14.75;;;5.85;;
67768;SDS011;54569;52.018;5.584;2023-04-16T01:40:19;13.75;;;6.32;;
67768;SDS011;54569;52.018;5.584;2023-04-16T01:42:45;15.75;;;5.40;;
67768;SDS011;54569;52.018;5.584;2023-04-16T01:45:10;14.93;;;5.75;;
67768;SDS011;54569;52.018;5.584;2023-04-16T01:47:36;18.15;;;6.43;;
67768;SDS011;54569;52.018;5.584;2023-04-16T01:50:02;17.45;;;6.30;;
67768;SDS011;54569;52.018;5.584;2023-04-16T01:52:28;15.50;;;5.97;;
67768;SDS011;54569;52.018;5.584;2023-04-16T01:54:55;10.95;;;5.68;;
67768;SDS011;54569;52.018;5.584;2023-04-16T01:57:21;15.07;;;6.43;;
67768;SDS011;54569;52.018;5.584;2023-04-16T01:59:47;16.17;;;6.50;;
67768;SDS011;54569;52.018;5.584;2023-04-16T02:02:15;15.43;;;5.88;;
67768;SDS011;54569;52.018;5.584;2023-04-16T02:04:41;14.13;;;6.57;;
67768;SDS011;54569;52.018;5.584;2023-04-16T02:07:09;17.33;;;6.50;;
67768;SDS011;54569;52.018;5.584;2023-04-16T02:09:36;15.48;;;6.38;;
67768;SDS011;54569;52.018;5.584;2023-04-16T02:12:05;17.25;;;6.03;;
67768;SDS011;54569;52.018;5.584;2023-04-16T02:14:31;20.33;;;6.25;;
67768;SDS011;54569;52.018;5.584;2023-04-16T02:19:36;15.55;;;6.25;;
67768;SDS011;54569;52.018;5.584;2023-04-16T02:24:33;17.08;;;6.82;;
67768;SDS011;54569;52.018;5.584;2023-04-16T02:27:04;12.75;;;6.00;;
67768;SDS011;54569;52.018;5.584;2023-04-16T02:29:46;22.58;;;7.10;;
67768;SDS011;54569;52.018;5.584;2023-04-16T02:32:15;18.15;;;6.90;;
67768;SDS011;54569;52.018;5.584;2023-04-16T02:34:43;25.55;;;8.07;;
67768;SDS011;54569;52.018;5.584;2023-04-16T02:37:10;24.73;;;7.45;;
67768;SDS011;54569;52.018;5.584;2023-04-16T02:39:35;17.55;;;7.00;;
67768;SDS011;54569;52.018;5.584;2023-04-16T02:42:01;19.90;;;7.40;;
67768;SDS011;54569;52.018;5.584;2023-04-16T02:44:27;18.83;;;7.95;;
67768;SDS011;54569;52.018;5.584;2023-04-16T02:46:53;15.90;;;7.38;;
67768;SDS011;54569;52.018;5.584;2023-04-16T02:49:19;21.05;;;7.47;;
67768;SDS011;54569;52.018;5.584;2023-04-16T02:51:46;18.42;;;6.13;;
67768;SDS011;54569;52.018;5.584;2023-04-16T02:54:12;17.10;;;6.63;;
67768;SDS011;54569;52.018;5.584;2023-04-16T02:56:38;16.40;;;6.82;;
67768;SDS011;54569;52.018;5.584;2023-04-16T02:59:03;21.92;;;6.88;;
67768;SDS011;54569;52.018;5.584;2023-04-16T03:01:30;17.88;;;8.20;;
67768;SDS011;54569;52.018;5.584;2023-04-16T03:03:55;15.20;;;6.47;;
67768;SDS011;54569;52.018;5.584;2023-04-16T03:06:21;20.73;;;7.40;;
67768;SDS011;54569;52.018;5.584;2023-04-16T03:08:47;20.33;;;7.78;;
67768;SDS011;54569;52.018;5.584;2023-04-16T03:11:13;19.27;;;7.10;;
67768;SDS011;54569;52.018;5.584;2023-04-16T03:13:39;18.83;;;8.13;;
67768;SDS011;54569;52.018;5.584;2023-04-16T03:16:05;19.30;;;6.85;;
67768;SDS011;54569;52.018;5.584;2023-04-16T03:18:31;19.17;;;7.80;;
67768;SDS011;54569;52.018;5.584;2023-04-16T03:20:56;25.20;;;8.27;;
67768;SDS011;54569;52.018;5.584;2023-04-16T03:23:22;17.17;;;7.28;;
67768;SDS011;54569;52.018;5.584;2023-04-16T03:25:48;20.15;;;8.20;;
67768;SDS011;54569;52.018;5.584;2023-04-16T03:28:16;20.65;;;8.68;;
67768;SDS011;54569;52.018;5.584;2023-04-16T03:30:42;21.60;;;9.82;;
67768;SDS011;54569;52.018;5.584;2023-04-16T03:33:13;21.90;;;9.00;;
67768;SDS011;54569;52.018;5.584;2023-04-16T03:35:39;19.63;;;9.70;;
67768;SDS011;54569;52.018;5.584;2023-04-16T03:38:05;20.08;;;9.77;;
67768;SDS011;54569;52.018;5.584;2023-04-16T03:40:32;20.52;;;10.15;;
67768;SDS011;54569;52.018;5.584;2023-04-16T03:42:58;23.70;;;10.13;;
67768;SDS011;54569;52.018;5.584;2023-04-16T03:45:25;22.48;;;10.02;;
67768;SDS011;54569;52.018;5.584;2023-04-16T03:47:51;25.23;;;11.52;;
67768;SDS011;54569;52.018;5.584;2023-04-16T03:50:20;21.55;;;10.93;;
67768;SDS011;54569;52.018;5.584;2023-04-16T03:52:47;25.58;;;10.25;;
67768;SDS011;54569;52.018;5.584;2023-04-16T03:55:14;21.70;;;10.35;;
67768;SDS011;54569;52.018;5.584;2023-04-16T03:57:40;23.45;;;11.18;;
67768;SDS011;54569;52.018;5.584;2023-04-16T04:00:09;23.27;;;11.48;;
67768;SDS011;54569;52.018;5.584;2023-04-16T04:02:59;25.27;;;11.85;;
67768;SDS011;54569;52.018;5.584;2023-04-16T04:05:25;21.63;;;12.45;;
67768;SDS011;54569;52.018;5.584;2023-04-16T04:07:51;26.80;;;12.85;;
67768;SDS011;54569;52.018;5.584;2023-04-16T04:10:17;24.70;;;11.77;;
67768;SDS011;54569;52.018;5.584;2023-04-16T04:12:42;24.55;;;12.18;;
67768;SDS011;54569;52.018;5.584;2023-04-16T04:15:08;25.02;;;11.98;;
67768;SDS011;54569;52.018;5.584;2023-04-16T04:17:34;22.27;;;10.93;;
67768;SDS011;54569;52.018;5.584;2023-04-16T04:20:01;24.50;;;10.50;;
67768;SDS011;54569;52.018;5.584;2023-04-16T04:22:28;19.70;;;9.98;;
67768;SDS011;54569;52.018;5.584;2023-04-16T04:24:53;20.65;;;9.73;;
67768;SDS011;54569;52.018;5.584;2023-04-16T04:27:19;16.85;;;8.52;;
67768;SDS011;54569;52.018;5.584;2023-04-16T04:29:45;18.25;;;8.65;;
67768;SDS011;54569;52.018;5.584;2023-04-16T04:32:10;18.75;;;8.27;;
67768;SDS011;54569;52.018;5.584;2023-04-16T04:34:36;19.85;;;8.57;;
67768;SDS011;54569;52.018;5.584;2023-04-16T04:37:03;15.32;;;8.63;;
67768;SDS011;54569;52.018;5.584;2023-04-16T04:39:29;19.52;;;9.00;;
67768;SDS011;54569;52.018;5.584;2023-04-16T04:41:56;19.42;;;9.00;;
67768;SDS011;54569;52.018;5.584;2023-04-16T04:44:21;17.85;;;9.15;;
67768;SDS011;54569;52.018;5.584;2023-04-16T04:46:47;22.10;;;8.70;;
67768;SDS011;54569;52.018;5.584;2023-04-16T04:49:13;17.98;;;9.57;;
67768;SDS011;54569;52.018;5.584;2023-04-16T04:51:38;19.25;;;9.52;;
67768;SDS011;54569;52.018;5.584;2023-04-16T04:54:04;18.85;;;8.85;;
67768;SDS011;54569;52.018;5.584;2023-04-16T04:56:30;17.05;;;8.82;;
67768;SDS011;54569;52.018;5.584;2023-04-16T04:58:56;19.15;;;8.93;;
67768;SDS011;54569;52.018;5.584;2023-04-16T05:01:21;16.88;;;8.77;;
67768;SDS011;54569;52.018;5.584;2023-04-16T05:03:47;20.55;;;8.73;;
67768;SDS011;54569;52.018;5.584;2023-04-16T05:06:12;21.95;;;9.38;;
67768;SDS011;54569;52.018;5.584;2023-04-16T05:08:38;14.70;;;8.88;;
67768;SDS011;54569;52.018;5.584;2023-04-16T05:11:04;19.40;;;9.00;;
67768;SDS011;54569;52.018;5.584;2023-04-16T05:13:29;21.65;;;8.85;;
67768;SDS011;54569;52.018;5.584;2023-04-16T05:15:55;17.45;;;9.68;;
67768;SDS011;54569;52.018;5.584;2023-04-16T05:18:20;23.83;;;9.18;;
67768;SDS011;54569;52.018;5.584;2023-04-16T05:20:46;21.98;;;9.95;;
67768;SDS011;54569;52.018;5.584;2023-04-16T05:23:12;18.42;;;9.45;;
67768;SDS011;54569;52.018;5.584;2023-04-16T05:25:39;19.50;;;10.07;;
67768;SDS011;54569;52.018;5.584;2023-04-16T05:28:05;18.25;;;9.02;;
67768;SDS011;54569;52.018;5.584;2023-04-16T05:30:31;21.38;;;8.95;;
67768;SDS011;54569;52.018;5.584;2023-04-16T05:32:56;22.02;;;9.60;;
67768;SDS011;54569;52.018;5.584;2023-04-16T05:35:22;18.00;;;9.90;;
67768;SDS011;54569;52.018;5.584;2023-04-16T05:37:47;22.02;;;9.43;;
67768;SDS011;54569;52.018;5.584;2023-04-16T05:40:13;22.15;;;10.57;;
67768;SDS011;54569;52.018;5.584;2023-04-16T05:42:39;23.48;;;10.88;;
67768;SDS011;54569;52.018;5.584;2023-04-16T05:45:05;19.58;;;9.82;;
67768;SDS011;54569;52.018;5.584;2023-04-16T05:47:33;21.38;;;10.20;;
67768;SDS011;54569;52.018;5.584;2023-04-16T05:49:59;21.20;;;10.40;;
67768;SDS011;54569;52.018;5.584;2023-04-16T05:52:24;19.25;;;10.80;;
67768;SDS011;54569;52.018;5.584;2023-04-16T05:54:50;22.45;;;9.25;;
67768;SDS011;54569;52.018;5.584;2023-04-16T05:57:15;18.80;;;9.90;;
67768;SDS011;54569;52.018;5.584;2023-04-16T05:59:42;22.13;;;10.68;;
67768;SDS011;54569;52.018;5.584;2023-04-16T06:02:09;23.23;;;10.27;;
67768;SDS011;54569;52.018;5.584;2023-04-16T06:04:34;18.58;;;10.13;;
67768;SDS011;54569;52.018;5.584;2023-04-16T06:07:01;20.73;;;10.23;;
67768;SDS011;54569;52.018;5.584;2023-04-16T06:09:27;23.20;;;9.50;;
67768;SDS011;54569;52.018;5.584;2023-04-16T06:11:53;20.38;;;10.23;;
67768;SDS011;54569;52.018;5.584;2023-04-16T06:14:25;23.80;;;9.63;;
67768;SDS011;54569;52.018;5.584;2023-04-16T06:16:50;17.88;;;9.98;;
67768;SDS011;54569;52.018;5.584;2023-04-16T06:19:17;20.20;;;9.88;;
67768;SDS011;54569;52.018;5.584;2023-04-16T06:21:43;16.33;;;8.70;;
67768;SDS011;54569;52.018;5.584;2023-04-16T06:24:10;19.20;;;9.90;;
67768;SDS011;54569;52.018;5.584;2023-04-16T06:26:38;22.05;;;10.90;;
67768;SDS011;54569;52.018;5.584;2023-04-16T06:29:04;22.35;;;9.80;;
67768;SDS011;54569;52.018;5.584;2023-04-16T06:31:30;18.92;;;9.88;;
67768;SDS011;54569;52.018;5.584;2023-04-16T06:33:55;20.27;;;9.00;;
67768;SDS011;54569;52.018;5.584;2023-04-16T06:36:21;16.38;;;9.27;;
67768;SDS011;54569;52.018;5.584;2023-04-16T06:38:47;16.80;;;9.57;;
67768;SDS011;54569;52.018;5.584;2023-04-16T06:41:13;19.75;;;10.93;;
67768;SDS011;54569;52.018;5.584;2023-04-16T06:43:39;19.45;;;10.15;;
67768;SDS011;54569;52.018;5.584;2023-04-16T06:46:04;19.52;;;9.90;;
67768;SDS011;54569;52.018;5.584;2023-04-16T06:48:30;21.13;;;10.82;;
67768;SDS011;54569;52.018;5.584;2023-04-16T06:50:56;21.27;;;9.52;;
67768;SDS011;54569;52.018;5.584;2023-04-16T06:53:22;18.75;;;10.55;;
67768;SDS011;54569;52.018;5.584;2023-04-16T06:55:47;20.92;;;10.43;;
67768;SDS011;54569;52.018;5.584;2023-04-16T06:58:13;18.00;;;10.38;;
67768;SDS011;54569;52.018;5.584;2023-04-16T07:00:39;20.48;;;11.15;;
67768;SDS011;54569;52.018;5.584;2023-04-16T07:03:04;18.98;;;10.80;;
67768;SDS011;54569;52.018;5.584;2023-04-16T07:05:30;20.75;;;10.63;;
67768;SDS011;54569;52.018;5.584;2023-04-16T07:07:56;23.08;;;11.25;;
67768;SDS011;54569;52.018;5.584;2023-04-16T07:10:22;19.70;;;11.13;;
67768;SDS011;54569;52.018;5.584;2023-04-16T07:12:48;20.40;;;10.38;;
67768;SDS011;54569;52.018;5.584;2023-04-16T07:15:14;19.65;;;10.73;;
67768;SDS011;54569;52.018;5.584;2023-04-16T07:17:39;19.75;;;11.43;;
67768;SDS011;54569;52.018;5.584;2023-04-16T07:20:05;21.00;;;12.00;;
67768;SDS011;54569;52.018;5.584;2023-04-16T07:22:32;23.83;;;11.77;;
67768;SDS011;54569;52.018;5.584;2023-04-16T07:24:57;24.85;;;11.68;;
67768;SDS011;54569;52.018;5.584;2023-04-16T07:27:23;21.02;;;12.00;;
67768;SDS011;54569;52.018;5.584;2023-04-16T07:29:48;25.02;;;12.98;;
67768;SDS011;54569;52.018;5.584;2023-04-16T07:32:14;21.05;;;12.25;;
67768;SDS011;54569;52.018;5.584;2023-04-16T07:34:40;24.63;;;12.52;;
67768;SDS011;54569;52.018;5.584;2023-04-16T07:37:06;23.38;;;13.27;;
67768;SDS011;54569;52.018;5.584;2023-04-16T07:39:32;28.73;;;13.15;;
67768;SDS011;54569;52.018;5.584;2023-04-16T07:41:58;20.15;;;11.77;;
67768;SDS011;54569;52.018;5.584;2023-04-16T07:44:24;18.08;;;12.07;;
67768;SDS011;54569;52.018;5.584;2023-04-16T07:46:49;25.08;;;13.02;;
67768;SDS011;54569;52.018;5.584;2023-04-16T07:49:15;20.85;;;12.90;;
67768;SDS011;54569;52.018;5.584;2023-04-16T07:51:41;23.17;;;12.80;;
67768;SDS011;54569;52.018;5.584;2023-04-16T07:54:06;25.95;;;13.38;;
67768;SDS011;54569;52.018;5.584;2023-04-16T07:56:32;21.55;;;11.95;;
67768;SDS011;54569;52.018;5.584;2023-04-16T07:58:58;20.73;;;12.70;;
67768;SDS011;54569;52.018;5.584;2023-04-16T08:01:23;24.17;;;12.43;;
67768;SDS011;54569;52.018;5.584;2023-04-16T08:03:49;20.67;;;12.82;;
67768;SDS011;54569;52.018;5.584;2023-04-16T08:06:15;21.13;;;12.32;;
67768;SDS011;54569;52.018;5.584;2023-04-16T08:08:41;21.10;;;11.50;;
67768;SDS011;54569;52.018;5.584;2023-04-16T08:11:07;18.75;;;12.07;;
67768;SDS011;54569;52.018;5.584;2023-04-16T08:13:33;18.45;;;11.52;;
67768;SDS011;54569;52.018;5.584;2023-04-16T08:15:58;24.42;;;12.50;;
67768;SDS011;54569;52.018;5.584;2023-04-16T08:18:24;21.08;;;11.40;;
67768;SDS011;54569;52.018;5.584;2023-04-16T08:20:49;20.25;;;12.02;;
67768;SDS011;54569;52.018;5.584;2023-04-16T08:23:15;20.35;;;12.00;;
67768;SDS011;54569;52.018;5.584;2023-04-16T08:25:41;26.15;;;12.50;;
67768;SDS011;54569;52.018;5.584;2023-04-16T08:28:06;20.90;;;12.55;;
67768;SDS011;54569;52.018;5.584;2023-04-16T08:30:32;24.55;;;12.35;;
67768;SDS011;54569;52.018;5.584;2023-04-16T08:32:58;21.25;;;11.57;;
67768;SDS011;54569;52.018;5.584;2023-04-16T08:35:24;22.75;;;12.02;;
67768;SDS011;54569;52.018;5.584;2023-04-16T08:37:50;21.52;;;12.38;;
67768;SDS011;54569;52.018;5.584;2023-04-16T08:40:15;25.77;;;12.93;;
67768;SDS011;54569;52.018;5.584;2023-04-16T08:42:45;20.50;;;12.15;;
67768;SDS011;54569;52.018;5.584;2023-04-16T08:45:18;17.38;;;10.90;;
67768;SDS011;54569;52.018;5.584;2023-04-16T08:47:44;19.75;;;12.30;;
67768;SDS011;54569;52.018;5.584;2023-04-16T08:50:13;20.48;;;13.15;;
67768;SDS011;54569;52.018;5.584;2023-04-16T08:52:55;24.38;;;12.23;;
67768;SDS011;54569;52.018;5.584;2023-04-16T08:55:33;22.55;;;11.85;;
67768;SDS011;54569;52.018;5.584;2023-04-16T08:58:03;21.83;;;11.43;;
67768;SDS011;54569;52.018;5.584;2023-04-16T09:00:37;22.60;;;12.55;;
67768;SDS011;54569;52.018;5.584;2023-04-16T09:03:05;20.80;;;11.35;;
67768;SDS011;54569;52.018;5.584;2023-04-16T09:05:32;19.45;;;11.52;;
67768;SDS011;54569;52.018;5.584;2023-04-16T09:07:57;23.75;;;12.10;;
67768;SDS011;54569;52.018;5.584;2023-04-16T09:10:24;21.67;;;12.35;;
67768;SDS011;54569;52.018;5.584;2023-04-16T09:12:50;22.20;;;12.30;;
67768;SDS011;54569;52.018;5.584;2023-04-16T09:15:16;22.27;;;12.32;;
67768;SDS011;54569;52.018;5.584;2023-04-16T09:17:45;27.65;;;12.65;;
67768;SDS011;54569;52.018;5.584;2023-04-16T09:20:11;27.48;;;12.90;;
67768;SDS011;54569;52.018;5.584;2023-04-16T09:22:37;27.30;;;13.25;;
67768;SDS011;54569;52.018;5.584;2023-04-16T09:25:04;25.17;;;13.70;;
67768;SDS011;54569;52.018;5.584;2023-04-16T09:27:30;29.33;;;13.88;;
67768;SDS011;54569;52.018;5.584;2023-04-16T09:29:56;20.55;;;12.38;;
67768;SDS011;54569;52.018;5.584;2023-04-16T09:32:25;21.70;;;12.00;;
67768;SDS011;54569;52.018;5.584;2023-04-16T09:34:59;18.60;;;12.65;;
67768;SDS011;54569;52.018;5.584;2023-04-16T09:37:29;25.90;;;12.68;;
67768;SDS011;54569;52.018;5.584;2023-04-16T09:42:22;22.23;;;13.20;;
67768;SDS011;54569;52.018;5.584;2023-04-16T09:44:49;22.52;;;12.90;;
67768;SDS011;54569;52.018;5.584;2023-04-16T09:47:15;22.08;;;13.27;;
67768;SDS011;54569;52.018;5.584;2023-04-16T09:49:41;21.10;;;13.45;;
67768;SDS011;54569;52.018;5.584;2023-04-16T09:52:17;22.35;;;12.55;;
67768;SDS011;54569;52.018;5.584;2023-04-16T09:54:49;24.52;;;13.65;;
67768;SDS011;54569;52.018;5.584;2023-04-16T09:57:19;23.10;;;13.10;;
67768;SDS011;54569;52.018;5.584;2023-04-16T09:59:46;20.88;;;12.45;;
67768;SDS011;54569;52.018;5.584;2023-04-16T10:02:25;20.20;;;12.32;;
67768;SDS011;54569;52.018;5.584;2023-04-16T10:04:51;21.20;;;12.35;;
67768;SDS011;54569;52.018;5.584;2023-04-16T10:07:19;22.95;;;14.40;;
67768;SDS011;54569;52.018;5.584;2023-04-16T10:09:46;21.13;;;12.65;;
67768;SDS011;54569;52.018;5.584;2023-04-16T10:12:13;19.30;;;11.90;;
67768;SDS011;54569;52.018;5.584;2023-04-16T10:14:40;20.45;;;12.88;;
67768;SDS011;54569;52.018;5.584;2023-04-16T10:17:09;21.88;;;12.70;;
67768;SDS011;54569;52.018;5.584;2023-04-16T10:19:35;19.60;;;12.43;;
67768;SDS011;54569;52.018;5.584;2023-04-16T10:22:01;17.25;;;11.70;;
67768;SDS011;54569;52.018;5.584;2023-04-16T10:24:28;16.92;;;11.93;;
67768;SDS011;54569;52.018;5.584;2023-04-16T10:26:55;18.88;;;11.27;;
67768;SDS011;54569;52.018;5.584;2023-04-16T10:29:25;19.60;;;11.30;;
67768;SDS011;54569;52.018;5.584;2023-04-16T10:31:53;15.40;;;10.82;;
67768;SDS011;54569;52.018;5.584;2023-04-16T10:34:20;20.30;;;12.18;;
67768;SDS011;54569;52.018;5.584;2023-04-16T10:36:47;16.70;;;11.13;;
67768;SDS011;54569;52.018;5.584;2023-04-16T10:39:16;20.25;;;11.68;;
67768;SDS011;54569;52.018;5.584;2023-04-16T10:41:44;18.20;;;11.88;;
67768;SDS011;54569;52.018;5.584;2023-04-16T10:44:10;14.45;;;10.52;;
67768;SDS011;54569;52.018;5.584;2023-04-16T10:46:43;13.32;;;9.18;;
67768;SDS011;54569;52.018;5.584;2023-04-16T10:49:22;19.25;;;11.02;;
67768;SDS011;54569;52.018;5.584;2023-04-16T10:54:24;15.95;;;10.60;;
67768;SDS011;54569;52.018;5.584;2023-04-16T10:56:51;13.02;;;10.23;;
67768;SDS011;54569;52.018;5.584;2023-04-16T10:59:19;14.23;;;10.18;;
67768;SDS011;54569;52.018;5.584;2023-04-16T11:01:46;17.33;;;11.30;;
67768;SDS011;54569;52.018;5.584;2023-04-16T11:12:12;16.27;;;10.73;;
67768;SDS011;54569;52.018;5.584;2023-04-16T11:14:42;14.63;;;9.80;;
67768;SDS011;54569;52.018;5.584;2023-04-16T11:17:10;15.55;;;9.50;;
67768;SDS011;54569;52.018;5.584;2023-04-16T11:19:36;13.10;;;8.95;;
67768;SDS011;54569;52.018;5.584;2023-04-16T11:22:02;16.70;;;9.02;;
67768;SDS011;54569;52.018;5.584;2023-04-16T11:24:32;12.55;;;8.98;;
67768;SDS011;54569;52.018;5.584;2023-04-16T11:27:02;13.38;;;9.88;;
67768;SDS011;54569;52.018;5.584;2023-04-16T11:29:29;15.82;;;8.90;;
67768;SDS011;54569;52.018;5.584;2023-04-16T11:31:55;15.68;;;9.70;;
67768;SDS011;54569;52.018;5.584;2023-04-16T11:34:20;15.32;;;10.00;;
67768;SDS011;54569;52.018;5.584;2023-04-16T11:36:47;13.88;;;10.25;;
67768;SDS011;54569;52.018;5.584;2023-04-16T11:39:14;15.68;;;10.45;;
67768;SDS011;54569;52.018;5.584;2023-04-16T11:41:43;18.38;;;10.43;;
67768;SDS011;54569;52.018;5.584;2023-04-16T11:46:42;22.83;;;10.77;;
67768;SDS011;54569;52.018;5.584;2023-04-16T11:49:07;20.98;;;11.45;;
67768;SDS011;54569;52.018;5.584;2023-04-16T11:51:38;19.80;;;11.23;;
67768;SDS011;54569;52.018;5.584;2023-04-16T11:54:06;19.90;;;10.40;;
67768;SDS011;54569;52.018;5.584;2023-04-16T11:56:33;18.95;;;10.13;;
67768;SDS011;54569;52.018;5.584;2023-04-16T11:59:07;20.25;;;11.88;;
67768;SDS011;54569;52.018;5.584;2023-04-16T12:01:34;21.97;;;10.70;;
67768;SDS011;54569;52.018;5.584;2023-04-16T12:04:01;14.52;;;10.23;;
67768;SDS011;54569;52.018;5.584;2023-04-16T12:06:28;18.20;;;10.95;;
67768;SDS011;54569;52.018;5.584;2023-04-16T12:08:54;16.15;;;10.50;;
67768;SDS011;54569;52.018;5.584;2023-04-16T12:11:19;19.98;;;11.20;;
67768;SDS011;54569;52.018;5.584;2023-04-16T12:16:30;18.38;;;10.52;;
67768;SDS011;54569;52.018;5.584;2023-04-16T12:19:00;16.52;;;10.80;;
67768;SDS011;54569;52.018;5.584;2023-04-16T12:21:41;17.15;;;10.07;;
67768;SDS011;54569;52.018;5.584;2023-04-16T12:24:13;15.10;;;9.80;;
67768;SDS011;54569;52.018;5.584;2023-04-16T12:26:44;15.85;;;10.48;;
67768;SDS011;54569;52.018;5.584;2023-04-16T12:29:19;12.30;;;9.50;;
67768;SDS011;54569;52.018;5.584;2023-04-16T12:31:46;13.27;;;9.63;;
67768;SDS011;54569;52.018;5.584;2023-04-16T12:34:15;15.35;;;10.77;;
67768;SDS011;54569;52.018;5.584;2023-04-16T12:36:42;16.05;;;11.00;;
67768;SDS011;54569;52.018;5.584;2023-04-16T12:39:09;17.08;;;10.25;;
67768;SDS011;54569;52.018;5.584;2023-04-16T12:41:36;15.73;;;10.27;;
67768;SDS011;54569;52.018;5.584;2023-04-16T12:44:03;16.60;;;11.40;;
67768;SDS011;54569;52.018;5.584;2023-04-16T12:46:47;21.83;;;10.93;;
67768;SDS011;54569;52.018;5.584;2023-04-16T12:49:13;16.90;;;10.98;;
67768;SDS011;54569;52.018;5.584;2023-04-16T12:51:38;15.40;;;11.23;;
67768;SDS011;54569;52.018;5.584;2023-04-16T12:54:05;19.92;;;11.02;;
67768;SDS011;54569;52.018;5.584;2023-04-16T12:56:31;14.88;;;10.90;;
67768;SDS011;54569;52.018;5.584;2023-04-16T12:58:58;18.70;;;11.55;;
67768;SDS011;54569;52.018;5.584;2023-04-16T13:01:23;18.95;;;12.02;;
67768;SDS011;54569;52.018;5.584;2023-04-16T13:03:49;18.63;;;11.52;;
67768;SDS011;54569;52.018;5.584;2023-04-16T13:06:15;18.67;;;12.63;;
67768;SDS011;54569;52.018;5.584;2023-04-16T13:08:42;21.80;;;13.07;;
67768;SDS011;54569;52.018;5.584;2023-04-16T13:11:08;20.48;;;12.27;;
67768;SDS011;54569;52.018;5.584;2023-04-16T13:13:34;23.33;;;13.40;;
67768;SDS011;54569;52.018;5.584;2023-04-16T13:16:00;18.73;;;12.00;;
67768;SDS011;54569;52.018;5.584;2023-04-16T13:18:28;22.05;;;13.07;;
67768;SDS011;54569;52.018;5.584;2023-04-16T13:20:54;24.30;;;13.68;;
67768;SDS011;54569;52.018;5.584;2023-04-16T13:23:20;18.70;;;12.65;;
67768;SDS011;54569;52.018;5.584;2023-04-16T13:25:45;20.45;;;12.77;;
67768;SDS011;54569;52.018;5.584;2023-04-16T13:28:11;18.98;;;13.80;;
67768;SDS011;54569;52.018;5.584;2023-04-16T13:30:37;20.17;;;12.55;;
67768;SDS011;54569;52.018;5.584;2023-04-16T13:33:02;19.13;;;12.82;;
67768;SDS011;54569;52.018;5.584;2023-04-16T13:35:29;22.25;;;12.65;;
67768;SDS011;54569;52.018;5.584;2023-04-16T13:37:55;23.13;;;13.10;;
67768;SDS011;54569;52.018;5.584;2023-04-16T13:40:20;26.35;;;14.00;;
67768;SDS011;54569;52.018;5.584;2023-04-16T13:42:46;23.02;;;14.18;;
67768;SDS011;54569;52.018;5.584;2023-04-16T13:45:12;22.20;;;14.13;;
67768;SDS011;54569;52.018;5.584;2023-04-16T13:47:39;21.33;;;13.55;;
67768;SDS011;54569;52.018;5.584;2023-04-16T13:50:06;19.35;;;12.85;;
67768;SDS011;54569;52.018;5.584;2023-04-16T13:52:32;20.90;;;12.70;;
67768;SDS011;54569;52.018;5.584;2023-04-16T13:54:58;19.33;;;12.82;;
67768;SDS011;54569;52.018;5.584;2023-04-16T13:57:24;19.77;;;12.63;;
67768;SDS011;54569;52.018;5.584;2023-04-16T13:59:51;19.88;;;12.85;;
67768;SDS011;54569;52.018;5.584;2023-04-16T14:02:16;20.50;;;12.80;;
67768;SDS011;54569;52.018;5.584;2023-04-16T14:04:42;20.92;;;12.95;;
67768;SDS011;54569;52.018;5.584;2023-04-16T14:07:08;21.20;;;13.13;;
67768;SDS011;54569;52.018;5.584;2023-04-16T14:09:33;21.63;;;12.57;;
67768;SDS011;54569;52.018;5.584;2023-04-16T14:11:59;19.55;;;12.23;;
67768;SDS011;54569;52.018;5.584;2023-04-16T14:14:25;25.67;;;13.10;;
67768;SDS011;54569;52.018;5.584;2023-04-16T14:16:53;21.88;;;12.20;;
67768;SDS011;54569;52.018;5.584;2023-04-16T14:19:19;20.25;;;12.35;;
67768;SDS011;54569;52.018;5.584;2023-04-16T14:21:45;20.48;;;11.43;;
67768;SDS011;54569;52.018;5.584;2023-04-16T14:24:11;19.20;;;12.38;;
67768;SDS011;54569;52.018;5.584;2023-04-16T14:26:36;19.77;;;11.27;;
67768;SDS011;54569;52.018;5.584;2023-04-16T14:29:02;19.10;;;12.13;;
67768;SDS011;54569;52.018;5.584;2023-04-16T14:31:28;18.42;;;12.27;;
67768;SDS011;54569;52.018;5.584;2023-04-16T14:33:54;17.60;;;12.00;;
67768;SDS011;54569;52.018;5.584;2023-04-16T14:36:20;17.73;;;11.15;;
67768;SDS011;54569;52.018;5.584;2023-04-16T14:38:46;15.80;;;11.77;;
67768;SDS011;54569;52.018;5.584;2023-04-16T14:41:13;19.35;;;12.00;;
67768;SDS011;54569;52.018;5.584;2023-04-16T14:43:38;15.77;;;10.98;;
67768;SDS011;54569;52.018;5.584;2023-04-16T14:46:05;18.08;;;10.88;;
67768;SDS011;54569;52.018;5.584;2023-04-16T14:48:31;19.33;;;10.70;;
67768;SDS011;54569;52.018;5.584;2023-04-16T14:50:57;13.60;;;10.13;;
67768;SDS011;54569;52.018;5.584;2023-04-16T14:53:24;17.83;;;10.45;;